Time;durP1;ratioP1;P1;durP2;ratioP2;P2;SDS_P1;SDS_P2;PMS_P1;PMS_P2;Temp;Humidity;BMP_temperature;BMP_pressure;BME280_temperature;BME280_humidity;BME280_pressure;Samples;Min_cycle;Max_cycle;Signal;HPM_P1;HPM_P2
2024/01/31 00:00:17;;;;;;;45.83;30.88;;;;;;;13.54;nan;98948.63;5054441;28;20047;-75
2024/01/31 00:02:46;;;;;;;46.45;30.75;;;;;;;13.61;nan;98956.59;5055361;28;20053;-75
2024/01/31 00:05:16;;;;;;;47.70;31.60;;;;;;;13.66;nan;98957.63;5053755;28;20541;-75
2024/01/31 00:07:45;;;;;;;44.50;32.47;;;;;;;13.58;nan;98973.00;5050450;28;20146;-75
2024/01/31 00:10:16;;;;;;;46.97;31.90;;;;;;;13.52;nan;98968.47;5044373;28;20099;-75
2024/01/31 00:12:45;;;;;;;52.03;32.85;;;;;;;13.55;nan;98965.41;5061642;28;20065;-76
2024/01/31 00:15:16;;;;;;;49.50;34.63;;;;;;;13.47;nan;98966.44;5034065;28;20053;-75
2024/01/31 00:17:45;;;;;;;53.92;35.42;;;;;;;13.43;nan;98950.06;5025824;28;20045;-76
2024/01/31 00:20:15;;;;;;;54.58;37.53;;;;;;;13.41;nan;98956.59;5008290;28;20053;-75
2024/01/31 00:22:44;;;;;;;53.03;36.78;;;;;;;13.62;nan;98959.06;5044419;28;20052;-75
2024/01/31 00:25:13;;;;;;;60.35;37.58;;;;;;;13.77;nan;98962.31;5018854;28;20444;-75
2024/01/31 00:27:43;;;;;;;56.33;37.50;;;;;;;13.67;nan;98967.25;5027154;28;20045;-75
2024/01/31 00:30:12;;;;;;;58.08;37.17;;;;;;;13.99;nan;98976.22;5026445;28;20053;-75
2024/01/31 00:32:42;;;;;;;60.10;37.75;;;;;;;14.17;nan;98987.03;5045614;28;20199;-75
2024/01/31 00:35:11;;;;;;;59.20;39.42;;;;;;;14.05;nan;98991.38;5028643;28;20057;-75
2024/01/31 00:37:40;;;;;;;59.20;39.15;;;;;;;13.79;nan;98989.56;5035737;28;20045;-75
2024/01/31 00:40:10;;;;;;;60.40;38.75;;;;;;;13.62;nan;98987.53;5007881;28;20516;-75
2024/01/31 00:42:41;;;;;;;62.65;39.22;;;;;;;13.64;nan;98996.09;5023662;28;20145;-76
2024/01/31 00:45:13;;;;;;;67.28;38.70;;;;;;;13.59;nan;99006.53;5030789;28;20634;-75
2024/01/31 00:47:43;;;;;;;62.55;39.15;;;;;;;13.59;nan;99001.22;5028010;28;20048;-75
2024/01/31 00:50:13;;;;;;;70.65;40.17;;;;;;;13.66;nan;98996.72;5028483;28;20049;-75
2024/01/31 00:52:42;;;;;;;62.42;40.88;;;;;;;13.97;nan;98996.91;5046135;28;20148;-76
2024/01/31 00:55:12;;;;;;;64.10;41.13;;;;;;;13.90;nan;98970.28;5027662;28;20499;-75
2024/01/31 00:57:41;;;;;;;66.07;40.45;;;;;;;13.86;nan;98966.41;5046280;28;20072;-76
2024/01/31 01:00:11;;;;;;;59.38;39.45;;;;;;;13.83;nan;98960.69;5027326;28;20060;-75
2024/01/31 01:02:41;;;;;;;59.95;37.90;;;;;;;13.80;nan;98967.25;5005999;28;20045;-76
2024/01/31 01:05:11;;;;;;;54.63;33.17;;;;;;;13.46;nan;98989.56;5039867;28;20561;-75
2024/01/31 01:07:41;;;;;;;46.88;30.42;;;;;;;13.45;nan;98990.56;5029234;28;20051;-76
2024/01/31 01:10:12;;;;;;;53.00;33.47;;;;;;;13.55;nan;98992.00;5043181;28;20073;-76
2024/01/31 01:12:43;;;;;;;57.17;35.47;;;;;;;13.38;nan;98996.91;5043001;28;20746;-76
2024/01/31 01:15:12;;;;;;;60.65;40.15;;;;;;;13.25;nan;99010.19;5045078;28;20447;-76
2024/01/31 01:17:43;;;;;;;63.17;40.78;;;;;;;13.41;nan;99013.28;5043398;28;20115;-76
2024/01/31 01:20:13;;;;;;;66.53;40.22;;;;;;;13.27;nan;99008.16;5059727;28;20041;-75
2024/01/31 01:22:42;;;;;;;62.85;39.45;;;;;;;13.22;nan;99018.59;5027325;28;20068;-76
2024/01/31 01:25:12;;;;;;;68.10;41.28;;;;;;;13.21;nan;99015.09;5044882;28;20099;-75
2024/01/31 01:27:48;;;;;;;66.00;40.17;;;;;;;13.24;nan;99020.00;5027934;28;20771;-76
2024/01/31 01:30:21;;;;;;;59.17;36.15;;;;;;;13.15;nan;99009.75;5044942;28;20157;-76
2024/01/31 01:32:51;;;;;;;52.28;34.35;;;;;;;13.05;nan;99012.78;5023296;28;20057;-76
2024/01/31 01:35:21;;;;;;;54.38;33.63;;;;;;;12.86;nan;99010.88;5034567;28;20492;-76
2024/01/31 01:37:50;;;;;;;51.30;32.55;;;;;;;12.89;nan;99013.13;5043784;28;20072;-76
2024/01/31 01:40:19;;;;;;;47.95;31.48;;;;;;;12.89;nan;99008.63;5043549;28;20134;-75
2024/01/31 01:42:49;;;;;;;44.90;32.15;;;;;;;13.02;nan;99010.50;5044078;28;20049;-75
2024/01/31 01:45:18;;;;;;;45.55;30.77;;;;;;;13.19;nan;99017.13;5060335;28;20076;-76
2024/01/31 01:47:50;;;;;;;46.63;30.70;;;;;;;13.05;nan;99016.25;5045439;28;20051;-76
2024/01/31 01:50:20;;;;;;;47.10;31.58;;;;;;;12.97;nan;99011.13;5044464;28;20083;-76
2024/01/31 01:52:49;;;;;;;45.17;31.55;;;;;;;13.07;nan;99008.91;5043413;28;20055;-76
2024/01/31 01:55:18;;;;;;;40.75;29.17;;;;;;;13.10;nan;99015.66;5043666;28;20135;-76
2024/01/31 01:57:48;;;;;;;47.75;31.05;;;;;;;13.14;nan;99022.25;5042580;28;20071;-76
2024/01/31 02:00:19;;;;;;;45.17;30.27;;;;;;;13.08;nan;99033.66;5045038;28;20131;-76
2024/01/31 02:02:48;;;;;;;48.25;31.30;;;;;;;12.99;nan;99030.34;5032597;28;20045;-76
2024/01/31 02:05:18;;;;;;;45.42;31.75;;;;;;;13.01;nan;99032.81;5043321;28;20107;-76
2024/01/31 02:07:48;;;;;;;49.05;32.55;;;;;;;13.18;nan;99034.13;5025582;28;20551;-76
2024/01/31 02:10:17;;;;;;;48.25;32.58;;;;;;;12.98;nan;99038.53;5038246;28;20049;-76
2024/01/31 02:12:47;;;;;;;50.70;33.97;;;;;;;13.12;nan;99034.09;5042801;28;20166;-76
2024/01/31 02:15:16;;;;;;;53.65;34.22;;;;;;;13.27;nan;99048.06;5044187;28;20048;-76
2024/01/31 02:17:45;;;;;;;47.38;33.80;;;;;;;13.00;nan;99057.78;5045431;28;20053;-76
2024/01/31 02:20:15;;;;;;;50.97;31.15;;;;;;;13.02;nan;99059.19;5039264;28;20045;-76
2024/01/31 02:22:47;;;;;;;46.60;31.40;;;;;;;13.02;nan;99059.19;5043154;28;20049;-76
2024/01/31 02:25:16;;;;;;;51.10;31.20;;;;;;;12.95;nan;99066.34;5026220;28;20509;-76
2024/01/31 02:27:46;;;;;;;48.88;32.13;;;;;;;12.83;nan;99070.59;5044723;28;20056;-76
2024/01/31 02:30:16;;;;;;;46.97;31.83;;;;;;;13.00;nan;99073.72;5044266;28;20503;-75
2024/01/31 02:32:45;;;;;;;45.58;32.17;;;;;;;13.15;nan;99081.56;5044397;28;20061;-76
2024/01/31 02:35:15;;;;;;;47.63;31.45;;;;;;;13.03;nan;99078.63;5026756;28;20134;-76
2024/01/31 02:37:44;;;;;;;47.72;32.67;;;;;;;13.05;nan;99071.28;5027214;28;20049;-76
2024/01/31 02:40:15;;;;;;;45.78;31.55;;;;;;;13.01;nan;99062.06;5036116;28;20127;-76
2024/01/31 02:42:44;;;;;;;47.97;32.88;;;;;;;12.92;nan;99071.25;5026701;28;20156;-75
2024/01/31 02:45:13;;;;;;;46.92;31.85;;;;;;;13.15;nan;99066.44;5043972;28;20060;-76
2024/01/31 02:47:43;;;;;;;47.38;31.98;;;;;;;13.11;nan;99059.88;5010115;28;20045;-76
2024/01/31 02:50:12;;;;;;;43.40;30.15;;;;;;;13.22;nan;99066.47;4994200;28;20059;-76
2024/01/31 02:52:41;;;;;;;42.85;30.90;;;;;;;13.25;nan;99061.56;5041430;28;20423;-76
2024/01/31 02:55:11;;;;;;;48.08;30.98;;;;;;;13.30;nan;99048.47;5015239;28;20060;-76
2024/01/31 02:57:41;;;;;;;47.30;33.10;;;;;;;13.27;nan;99053.38;5033485;28;20140;-76
2024/01/31 03:00:14;;;;;;;47.15;31.42;;;;;;;13.38;nan;99052.78;5044967;28;20093;-76
2024/01/31 03:02:44;;;;;;;47.05;32.63;;;;;;;13.50;nan;99065.28;5020307;28;20489;-77
2024/01/31 03:05:13;;;;;;;51.58;34.70;;;;;;;13.60;nan;99064.06;5025105;28;20055;-76
2024/01/31 03:07:43;;;;;;;53.05;35.53;;;;;;;13.52;nan;99062.44;5044587;28;20087;-76
2024/01/31 03:10:12;;;;;;;49.53;34.72;;;;;;;13.59;nan;99067.75;5042529;28;20049;-76
2024/01/31 03:12:41;;;;;;;58.70;36.85;;;;;;;13.59;nan;99054.44;5027295;28;20048;-76
2024/01/31 03:15:11;;;;;;;62.20;36.33;;;;;;;13.61;nan;99045.25;5026958;28;20449;-76
2024/01/31 03:17:41;;;;;;;50.42;36.17;;;;;;;13.71;nan;99051.00;5076820;28;20063;-75
2024/01/31 03:20:11;;;;;;;53.72;38.38;;;;;;;13.64;nan;99057.31;5042372;28;20135;-76
2024/01/31 03:22:40;;;;;;;58.10;39.35;;;;;;;13.72;nan;99051.81;5038086;28;20047;-76
2024/01/31 03:25:09;;;;;;;60.92;41.80;;;;;;;13.73;nan;99053.44;5044463;28;20161;-75
2024/01/31 03:27:38;;;;;;;68.60;43.67;;;;;;;13.69;nan;99050.38;5040404;28;20048;-76
2024/01/31 03:30:08;;;;;;;61.90;42.38;;;;;;;13.76;nan;99050.38;5034688;28;20084;-75
2024/01/31 03:32:38;;;;;;;67.35;44.97;;;;;;;13.77;nan;99057.31;5039672;28;20059;-76
2024/01/31 03:35:08;;;;;;;66.30;45.22;;;;;;;13.91;nan;99059.78;5045685;28;20059;-76
2024/01/31 03:37:37;;;;;;;64.97;44.10;;;;;;;14.21;nan;99062.84;5034147;28;20049;-76
2024/01/31 03:40:08;;;;;;;69.03;48.13;;;;;;;14.24;nan;99058.97;5028649;28;20718;-76
2024/01/31 03:42:38;;;;;;;82.68;51.22;;;;;;;14.18;nan;99062.44;5012928;28;20045;-76
2024/01/31 03:45:07;;;;;;;87.25;55.88;;;;;;;14.10;nan;99065.31;5023980;28;20061;-75
2024/01/31 03:47:37;;;;;;;79.70;54.92;;;;;;;14.23;nan;99066.13;5018601;28;20554;-76
2024/01/31 03:50:06;;;;;;;81.00;57.10;;;;;;;14.19;nan;99069.41;5028312;28;20050;-76
2024/01/31 03:52:36;;;;;;;87.18;58.72;;;;;;;14.20;nan;99076.38;5031258;28;20045;-76
2024/01/31 03:55:06;;;;;;;87.47;58.78;;;;;;;14.53;nan;99076.34;5039411;28;20049;-75
2024/01/31 03:57:37;;;;;;;92.43;60.60;;;;;;;14.50;nan;99082.94;5013002;28;20053;-75
2024/01/31 04:00:09;;;;;;;88.57;60.92;;;;;;;14.58;nan;99079.22;5043843;28;20444;-76
2024/01/31 04:02:38;;;;;;;94.30;58.90;;;;;;;14.66;nan;99086.97;5042807;28;20098;-76
2024/01/31 04:05:10;;;;;;;93.00;59.33;;;;;;;14.37;nan;99086.44;5025946;28;20136;-75
2024/01/31 04:07:43;;;;;;;93.47;61.17;;;;;;;14.46;nan;99091.56;5033693;28;20053;-75
2024/01/31 04:10:14;;;;;;;92.68;60.35;;;;;;;14.41;nan;99097.50;5031677;28;20099;-75
2024/01/31 04:12:45;;;;;;;93.68;60.38;;;;;;;14.42;nan;99087.66;5020644;28;20572;-76
2024/01/31 04:15:15;;;;;;;95.53;59.70;;;;;;;14.37;nan;99097.09;5044842;28;20802;-74
2024/01/31 04:17:44;;;;;;;90.55;60.63;;;;;;;14.43;nan;99098.09;5028531;28;20053;-75
2024/01/31 04:20:14;;;;;;;91.15;58.80;;;;;;;14.47;nan;99103.84;5041333;28;20485;-74
2024/01/31 04:22:44;;;;;;;92.53;60.35;;;;;;;14.55;nan;99095.63;5038976;28;20055;-75
2024/01/31 04:25:14;;;;;;;97.70;61.88;;;;;;;14.40;nan;99098.53;5045335;28;20539;-75
2024/01/31 04:27:44;;;;;;;90.40;59.72;;;;;;;14.39;nan;99096.88;5045795;28;20092;-74
2024/01/31 04:30:13;;;;;;;88.35;59.58;;;;;;;14.42;nan;99096.47;5044920;28;20063;-75
2024/01/31 04:32:42;;;;;;;86.50;56.85;;;;;;;14.50;nan;99098.09;5043421;28;20049;-75
2024/01/31 04:35:12;;;;;;;86.53;57.63;;;;;;;14.37;nan;99105.09;5041885;28;20152;-75
2024/01/31 04:37:42;;;;;;;87.80;58.25;;;;;;;14.53;nan;99103.00;5045549;28;20084;-74
2024/01/31 04:40:11;;;;;;;96.15;59.75;;;;;;;14.76;nan;99101.53;5058938;28;20064;-75
2024/01/31 04:42:40;;;;;;;97.10;57.35;;;;;;;14.66;nan;99105.66;5045621;28;20060;-75
2024/01/31 04:45:10;;;;;;;89.85;58.97;;;;;;;14.74;nan;99100.09;5049257;28;20477;-74
2024/01/31 04:47:41;;;;;;;96.82;61.50;;;;;;;14.83;nan;99093.50;5045075;28;20045;-74
2024/01/31 04:50:12;;;;;;;91.65;59.50;;;;;;;14.88;nan;99093.69;5045708;28;20115;-75
2024/01/31 04:52:41;;;;;;;89.22;60.13;;;;;;;15.14;nan;99106.91;5022824;28;20865;-75
2024/01/31 04:55:10;;;;;;;92.50;59.70;;;;;;;15.31;nan;99103.78;5042542;28;20053;-75
2024/01/31 04:57:40;;;;;;;90.18;58.97;;;;;;;15.41;nan;99106.78;5027416;28;20243;-74
2024/01/31 05:00:16;;;;;;;89.03;59.47;;;;;;;15.33;nan;99104.38;5041779;28;20059;-75
2024/01/31 05:02:46;;;;;;;92.07;60.13;;;;;;;15.49;nan;99109.25;5035819;28;20044;-75
2024/01/31 05:05:15;;;;;;;92.20;59.72;;;;;;;15.60;nan;99111.25;5034149;28;20045;-74
2024/01/31 05:07:45;;;;;;;93.82;60.85;;;;;;;15.41;nan;99112.13;5031739;28;20126;-70
2024/01/31 05:10:15;;;;;;;93.97;59.10;;;;;;;15.52;nan;99114.19;5050607;28;20059;-71
2024/01/31 05:12:45;;;;;;;93.75;62.03;;;;;;;15.60;nan;99120.09;5045844;28;20037;-72
2024/01/31 05:15:14;;;;;;;96.38;62.10;;;;;;;15.61;nan;99123.56;5050604;28;21473;-72
2024/01/31 05:17:43;;;;;;;96.47;62.28;;;;;;;15.67;nan;99115.50;5042568;28;20049;-71
2024/01/31 05:20:13;;;;;;;97.45;62.42;;;;;;;15.80;nan;99119.94;5053048;28;20037;-71
2024/01/31 05:22:42;;;;;;;98.95;61.85;;;;;;;15.86;nan;99118.25;5039333;28;20048;-72
2024/01/31 05:25:12;;;;;;;96.55;62.35;;;;;;;15.89;nan;99120.53;5025617;28;20045;-70
2024/01/31 05:27:42;;;;;;;103.55;62.50;;;;;;;16.17;nan;99115.56;5024214;28;20548;-72
2024/01/31 05:30:12;;;;;;;98.68;61.40;;;;;;;15.89;nan;99107.97;5039229;28;20125;-70
2024/01/31 05:32:42;;;;;;;96.43;60.90;;;;;;;16.00;nan;99115.28;5067816;28;20751;-72
2024/01/31 05:35:12;;;;;;;101.43;60.33;;;;;;;16.22;nan;99112.25;5041700;28;20044;-71
2024/01/31 05:37:42;;;;;;;97.50;59.90;;;;;;;16.17;nan;99108.38;5040174;28;20056;-69
2024/01/31 05:40:16;;;;;;;98.13;60.83;;;;;;;16.09;nan;99103.31;5056188;28;20064;-63
2024/01/31 05:42:45;;;;;;;99.28;60.70;;;;;;;16.46;nan;99096.16;5040603;28;20068;-64
2024/01/31 05:45:18;;;;;;;102.15;61.40;;;;;;;16.78;nan;99096.91;5042851;28;20040;-67
2024/01/31 05:47:47;;;;;;;102.43;58.97;;;;;;;16.47;nan;99095.13;5043365;28;20354;-67
2024/01/31 05:50:17;;;;;;;94.53;58.95;;;;;;;16.50;nan;99096.56;5046616;28;20049;-66
2024/01/31 05:52:46;;;;;;;102.43;59.92;;;;;;;16.42;nan;99104.88;5046148;28;20051;-65
2024/01/31 05:55:16;;;;;;;101.90;60.15;;;;;;;16.40;nan;99113.09;5058981;28;20051;-69
2024/01/31 05:57:49;;;;;;;99.10;61.00;;;;;;;16.30;nan;99107.44;5047367;28;20147;-69
2024/01/31 06:00:18;;;;;;;;;;;;;;;16.66;nan;99124.63;5045113;28;20044;-69
2024/01/31 06:02:47;;;;;;;103.20;62.05;;;;;;;16.63;nan;99128.56;5044272;28;19936;-71
2024/01/31 06:05:19;;;;;;;103.27;62.17;;;;;;;16.80;nan;99107.41;5038583;28;20041;-69
2024/01/31 06:07:49;;;;;;;101.90;62.90;;;;;;;17.05;nan;99108.94;5052915;28;20049;-70
2024/01/31 06:10:18;;;;;;;103.28;61.33;;;;;;;16.98;nan;99108.22;5056628;28;20044;-74
2024/01/31 06:12:47;;;;;;;103.32;61.70;;;;;;;16.95;nan;99103.28;5051231;28;20079;-73
2024/01/31 06:15:17;;;;;;;101.70;62.25;;;;;;;17.05;nan;99103.59;5044946;28;20162;-73
2024/01/31 06:17:46;;;;;;;93.85;58.97;;;;;;;16.86;nan;99091.25;5046399;28;20151;-73
2024/01/31 06:20:19;;;;;;;92.63;56.90;;;;;;;17.02;nan;99089.84;5059324;28;20064;-74
2024/01/31 06:22:48;;;;;;;95.10;59.08;;;;;;;17.00;nan;99095.41;5048412;28;20728;-73
2024/01/31 06:25:18;;;;;;;93.35;59.22;;;;;;;16.90;nan;99094.31;5047262;28;20055;-73
2024/01/31 06:27:47;;;;;;;94.85;59.30;;;;;;;16.61;nan;99093.19;5044886;28;20510;-74
2024/01/31 06:30:21;;;;;;;91.13;59.17;;;;;;;16.53;nan;99090.78;5054312;28;20155;-74
2024/01/31 06:32:50;;;;;;;95.22;58.63;;;;;;;16.64;nan;99083.91;5056926;28;20623;-73
2024/01/31 06:35:20;;;;;;;94.40;57.95;;;;;;;16.64;nan;99098.06;5045816;28;20048;-75
2024/01/31 06:37:49;;;;;;;94.13;56.95;;;;;;;16.34;nan;99089.91;5033050;28;20617;-74
2024/01/31 06:40:18;;;;;;;96.78;58.05;;;;;;;16.33;nan;99085.59;5040274;28;20052;-74
2024/01/31 06:42:51;;;;;;;95.80;61.03;;;;;;;16.50;nan;99086.69;5040140;28;20583;-75
2024/01/31 06:45:24;;;;;;;92.30;58.95;;;;;;;16.50;nan;99080.53;5026147;28;20582;-74
2024/01/31 06:47:54;;;;;;;90.25;58.53;;;;;;;16.59;nan;99081.91;5042674;28;20033;-74
2024/01/31 06:50:24;;;;;;;91.65;56.67;;;;;;;16.48;nan;99085.25;5031156;28;20108;-73
2024/01/31 06:52:53;;;;;;;98.82;61.75;;;;;;;16.47;nan;99075.59;5024085;28;20143;-75
2024/01/31 06:55:22;;;;;;;89.65;57.05;;;;;;;16.40;nan;99077.53;5034632;28;20044;-74
2024/01/31 06:57:51;;;;;;;92.43;56.47;;;;;;;16.42;nan;99072.81;5044145;28;20049;-74
2024/01/31 07:00:21;;;;;;;96.97;59.03;;;;;;;16.32;nan;99057.25;5044068;28;20060;-74
2024/01/31 07:02:52;;;;;;;97.45;60.05;;;;;;;16.44;nan;99063.50;5035111;28;20130;-73
2024/01/31 07:05:22;;;;;;;94.72;59.05;;;;;;;16.33;nan;99058.88;5020628;28;20049;-74
2024/01/31 07:07:51;;;;;;;95.95;59.42;;;;;;;16.29;nan;99056.84;5043706;28;20139;-74
2024/01/31 07:10:20;;;;;;;98.22;59.30;;;;;;;16.26;nan;99046.63;5028302;28;20736;-74
2024/01/31 07:12:52;;;;;;;102.88;59.97;;;;;;;16.44;nan;99042.13;5044242;28;20056;-74
2024/01/31 07:15:22;;;;;;;100.45;60.75;;;;;;;16.41;nan;99041.75;5022744;28;20058;-74
2024/01/31 07:17:51;;;;;;;99.00;60.40;;;;;;;16.53;nan;99029.28;5023459;28;20512;-74
2024/01/31 07:20:20;;;;;;;105.18;62.50;;;;;;;16.50;nan;99025.19;5022810;28;20065;-73
2024/01/31 07:22:49;;;;;;;103.38;61.03;;;;;;;16.61;nan;99015.63;5037740;28;20680;-73
2024/01/31 07:25:19;;;;;;;95.45;59.15;;;;;;;16.55;nan;99021.84;5032967;28;20560;-74
2024/01/31 07:27:50;;;;;;;101.80;61.33;;;;;;;16.50;nan;99019.84;5041546;28;20065;-73
2024/01/31 07:30:20;;;;;;;97.60;61.72;;;;;;;16.71;nan;99009.75;5026784;28;20064;-74
2024/01/31 07:32:49;;;;;;;90.97;57.75;;;;;;;16.56;nan;99005.56;5041665;28;20056;-74
2024/01/31 07:35:18;;;;;;;100.18;59.42;;;;;;;16.25;nan;99002.22;5040118;28;20543;-74
2024/01/31 07:37:48;;;;;;;102.82;63.25;;;;;;;16.47;nan;99003.41;5044951;28;20048;-74
2024/01/31 07:40:17;;;;;;;97.10;59.75;;;;;;;16.76;nan;98983.16;5047011;28;20045;-74
2024/01/31 07:42:46;;;;;;;101.80;60.25;;;;;;;16.74;nan;98980.69;5045405;28;20040;-75
2024/01/31 07:45:16;;;;;;;105.97;60.03;;;;;;;16.91;nan;98978.22;5046656;28;20068;-74
2024/01/31 07:47:45;;;;;;;89.13;56.20;;;;;;;16.80;nan;98974.47;5046933;28;20045;-74
2024/01/31 07:50:14;;;;;;;96.30;59.13;;;;;;;16.77;nan;98974.09;5046461;28;20080;-74
2024/01/31 07:52:44;;;;;;;86.75;54.90;;;;;;;16.75;nan;98973.50;5047138;28;20047;-74
2024/01/31 07:55:13;;;;;;;96.20;59.75;;;;;;;16.72;nan;98971.28;5042961;28;20057;-73
2024/01/31 07:57:43;;;;;;;89.88;58.17;;;;;;;17.01;nan;98955.22;5043119;28;20147;-73
2024/01/31 08:00:12;;;;;;;91.22;57.95;;;;;;;17.14;nan;98956.06;5046813;28;20392;-74
2024/01/31 08:02:41;;;;;;;85.90;56.38;;;;;;;17.12;nan;98948.31;5046490;28;20511;-75
2024/01/31 08:05:11;;;;;;;89.50;55.83;;;;;;;16.99;nan;98933.22;5054360;28;20053;-74
2024/01/31 08:07:47;;;;;;;92.30;56.97;;;;;;;17.03;nan;98933.59;5046317;28;20053;-74
2024/01/31 08:10:16;;;;;;;88.63;55.50;;;;;;;16.86;nan;98928.06;5046704;28;20041;-74
2024/01/31 08:12:48;;;;;;;86.95;53.90;;;;;;;16.94;nan;98916.25;5046243;28;20148;-74
2024/01/31 08:15:17;;;;;;;86.43;55.45;;;;;;;17.05;nan;98918.94;5045790;28;20053;-74
2024/01/31 08:17:47;;;;;;;85.72;55.47;;;;;;;17.12;nan;98910.00;5047275;28;20048;-74
2024/01/31 08:20:16;;;;;;;90.57;56.22;;;;;;;17.12;nan;98896.63;5046624;28;20045;-74
2024/01/31 08:22:46;;;;;;;81.60;53.55;;;;;;;17.10;nan;98898.69;5045668;28;20048;-73
2024/01/31 08:25:15;;;;;;;84.30;55.72;;;;;;;17.28;nan;98887.91;5044144;28;20064;-74
2024/01/31 08:27:44;;;;;;;80.30;53.75;;;;;;;17.44;nan;98876.50;5049597;28;20135;-74
2024/01/31 08:30:14;;;;;;;85.03;55.53;;;;;;;17.26;nan;98876.66;5042540;28;20056;-74
2024/01/31 08:32:44;;;;;;;78.95;52.95;;;;;;;17.23;nan;98871.72;5044144;28;20104;-74
2024/01/31 08:35:14;;;;;;;77.40;53.10;;;;;;;17.35;nan;98859.16;5030631;28;20119;-74
2024/01/31 08:37:43;;;;;;;76.93;52.13;;;;;;;17.42;nan;98854.53;5050080;28;20049;-73
2024/01/31 08:40:14;;;;;;;72.22;49.00;;;;;;;17.22;nan;98848.69;5046086;28;20107;-73
2024/01/31 08:42:48;;;;;;;68.38;47.78;;;;;;;17.21;nan;98847.06;5028117;28;20053;-73
2024/01/31 08:45:17;;;;;;;65.53;46.70;;;;;;;17.24;nan;98841.25;5023733;28;20532;-74
2024/01/31 08:47:47;;;;;;;71.80;47.78;;;;;;;17.04;nan;98830.84;5017925;28;20049;-73
2024/01/31 08:50:16;;;;;;;68.95;45.80;;;;;;;17.03;nan;98839.94;5027570;28;20393;-73
2024/01/31 08:52:45;;;;;;;67.70;46.92;;;;;;;17.05;nan;98835.16;5029451;28;20041;-73
2024/01/31 08:55:15;;;;;;;68.93;45.38;;;;;;;16.96;nan;98837.38;5045414;28;20064;-72
2024/01/31 08:57:44;;;;;;;71.53;47.72;;;;;;;16.87;nan;98835.25;5028061;28;20041;-71
2024/01/31 09:00:14;;;;;;;67.32;45.90;;;;;;;16.96;nan;98824.00;5044699;28;20040;-73
2024/01/31 09:02:43;;;;;;;71.32;48.42;;;;;;;17.11;nan;98815.53;5023960;28;20068;-73
2024/01/31 09:05:12;;;;;;;69.47;47.50;;;;;;;17.01;nan;98816.09;5018215;28;20382;-74
2024/01/31 09:07:42;;;;;;;65.55;46.22;;;;;;;17.20;nan;98813.31;5029242;28;20127;-73
2024/01/31 09:10:11;;;;;;;69.93;47.03;;;;;;;17.35;nan;98803.75;5037938;28;20056;-73
2024/01/31 09:12:40;;;;;;;71.82;47.33;;;;;;;17.30;nan;98810.88;5031419;28;20048;-73
2024/01/31 09:15:10;;;;;;;72.57;49.25;;;;;;;17.06;nan;98800.16;5044886;28;20049;-73
2024/01/31 09:17:39;;;;;;;78.82;49.50;;;;;;;17.01;nan;98802.72;5044378;28;20033;-73
2024/01/31 09:20:10;;;;;;;74.25;48.72;;;;;;;16.99;nan;98791.41;5037030;28;20055;-74
2024/01/31 09:22:40;;;;;;;78.63;48.90;;;;;;;16.94;nan;98787.81;5045052;28;20068;-73
2024/01/31 09:25:14;;;;;;;73.05;50.17;;;;;;;16.96;nan;98783.84;5044423;28;20048;-72
2024/01/31 09:27:44;;;;;;;82.60;51.17;;;;;;;16.95;nan;98790.25;5045060;28;20103;-73
2024/01/31 09:30:13;;;;;;;72.38;50.10;;;;;;;16.75;nan;98779.06;5024426;28;20532;-74
2024/01/31 09:32:42;;;;;;;73.00;49.63;;;;;;;16.93;nan;98772.81;5027041;28;20044;-73
2024/01/31 09:35:12;;;;;;;73.70;48.70;;;;;;;16.83;nan;98764.53;5009398;28;20135;-73
2024/01/31 09:37:41;;;;;;;72.85;47.05;;;;;;;16.87;nan;98761.16;5045038;28;20145;-73
2024/01/31 09:40:15;;;;;;;78.32;49.40;;;;;;;16.82;nan;98754.88;5024493;28;20626;-73
2024/01/31 09:42:45;;;;;;;73.50;48.55;;;;;;;16.78;nan;98754.53;5044960;28;20055;-72
2024/01/31 09:45:15;;;;;;;76.90;49.83;;;;;;;16.88;nan;98752.09;5053964;28;20354;-73
2024/01/31 09:47:47;;;;;;;74.05;48.92;;;;;;;16.89;nan;98752.91;5027634;28;20049;-72
2024/01/31 09:50:19;;;;;;;71.57;47.85;;;;;;;16.82;nan;98742.31;5024361;28;20064;-73
2024/01/31 09:52:53;;;;;;;74.47;47.78;;;;;;;16.86;nan;98743.47;5044979;28;20477;-71
2024/01/31 09:55:26;;;;;;;75.13;50.17;;;;;;;16.90;nan;98738.50;5026113;28;20059;-72
2024/01/31 09:57:56;;;;;;;75.78;48.90;;;;;;;16.88;nan;98730.69;5045101;28;20521;-71
2024/01/31 10:00:25;;;;;;;76.25;49.78;;;;;;;16.94;nan;98724.44;5026764;28;20049;-74
2024/01/31 10:02:55;;;;;;;81.47;50.33;;;;;;;17.11;nan;98715.69;5043957;28;20048;-72
2024/01/31 10:05:25;;;;;;;71.18;49.33;;;;;;;17.15;nan;98716.84;5043848;28;20052;-73
2024/01/31 10:08:04;;;;;;;75.82;49.38;;;;;;;17.17;nan;98712.09;5044057;28;20500;-73
2024/01/31 10:10:34;;;;;;;81.32;51.92;;;;;;;17.31;nan;98716.94;5050724;28;20073;-73
2024/01/31 10:13:06;;;;;;;78.70;50.97;;;;;;;17.39;nan;98697.81;5050362;28;20045;-73
2024/01/31 10:15:36;;;;;;;79.80;51.55;;;;;;;17.34;nan;98704.97;5041305;28;20044;-73
2024/01/31 10:18:06;;;;;;;82.38;51.03;;;;;;;17.44;nan;98699.78;5042179;28;20110;-73
2024/01/31 10:20:36;;;;;;;83.15;52.25;;;;;;;17.43;nan;98703.53;5042265;28;20095;-73
2024/01/31 10:23:05;;;;;;;79.72;51.88;;;;;;;17.43;nan;98707.03;5023783;28;20045;-73
2024/01/31 10:25:34;;;;;;;86.88;54.55;;;;;;;17.30;nan;98707.31;5035378;28;20056;-73
2024/01/31 10:28:04;;;;;;;87.07;53.77;;;;;;;17.25;nan;98703.69;5024146;28;20057;-74
2024/01/31 10:30:40;;;;;;;91.80;55.35;;;;;;;17.15;nan;98701.59;5041600;28;20259;-73
2024/01/31 10:33:10;;;;;;;88.55;55.55;;;;;;;17.23;nan;98713.81;5025163;28;20045;-73
2024/01/31 10:35:43;;;;;;;87.63;55.85;;;;;;;17.23;nan;98711.13;5043439;28;20048;-73
2024/01/31 10:38:32;;;;;;;91.82;56.38;;;;;;;17.24;nan;98702.06;5040471;28;20069;-73
2024/01/31 10:41:06;;;;;;;89.00;55.30;;;;;;;17.30;nan;98706.47;5042916;28;20057;-73
2024/01/31 10:43:37;;;;;;;100.10;57.75;;;;;;;17.10;nan;98698.00;5026567;28;20053;-73
2024/01/31 10:46:06;;;;;;;97.75;59.30;;;;;;;17.31;nan;98697.38;5043374;28;20060;-73
2024/01/31 10:48:35;;;;;;;92.68;56.85;;;;;;;17.25;nan;98698.34;5043370;28;20066;-73
2024/01/31 10:51:07;;;;;;;95.03;57.95;;;;;;;17.24;nan;98697.53;5049954;28;20049;-74
2024/01/31 10:53:38;;;;;;;100.47;60.17;;;;;;;17.14;nan;98694.63;5041035;28;20040;-73
2024/01/31 10:56:08;;;;;;;92.32;58.03;;;;;;;17.23;nan;98695.06;5005679;28;20049;-72
2024/01/31 10:58:38;;;;;;;95.13;58.33;;;;;;;17.21;nan;98689.97;5041957;28;20128;-73
2024/01/31 11:01:10;;;;;;;92.00;56.50;;;;;;;17.20;nan;98691.00;5045684;28;20064;-73
2024/01/31 11:03:46;;;;;;;101.00;58.60;;;;;;;17.19;nan;98685.88;5045867;28;20052;-73
2024/01/31 11:06:16;;;;;;;97.45;58.47;;;;;;;17.11;nan;98678.22;5047278;28;20106;-73
2024/01/31 11:08:47;;;;;;;94.13;57.22;;;;;;;17.09;nan;98683.81;5047384;28;20049;-73
2024/01/31 11:11:20;;;;;;;97.97;58.53;;;;;;;17.02;nan;98686.63;5043742;28;20069;-73
2024/01/31 11:13:56;;;;;;;94.13;56.80;;;;;;;17.05;nan;98682.63;5045602;28;20048;-73
2024/01/31 11:16:25;;;;;;;97.35;56.42;;;;;;;17.05;nan;98682.63;5043463;28;20488;-73
2024/01/31 11:18:54;;;;;;;93.82;56.35;;;;;;;17.02;nan;98689.28;5046378;28;20128;-74
2024/01/31 11:21:24;;;;;;;99.57;58.65;;;;;;;17.05;nan;98691.50;5046652;28;20045;-74
2024/01/31 11:23:53;;;;;;;95.13;57.28;;;;;;;16.97;nan;98686.50;5029669;28;20041;-73
2024/01/31 11:26:31;;;;;;;96.28;55.28;;;;;;;17.00;nan;98694.03;5024709;28;20053;-73
2024/01/31 11:29:04;;;;;;;102.05;56.60;;;;;;;16.94;nan;98696.84;5038166;28;20049;-73
2024/01/31 11:31:34;;;;;;;102.80;57.65;;;;;;;16.94;nan;98705.69;5049500;28;20049;-73
2024/01/31 11:34:03;;;;;;;95.28;55.60;;;;;;;16.92;nan;98710.47;5041710;28;20088;-72
2024/01/31 11:36:32;;;;;;;93.82;56.72;;;;;;;16.93;nan;98713.94;5046832;28;20051;-72
2024/01/31 11:39:01;;;;;;;94.80;57.30;;;;;;;16.97;nan;98725.81;5046297;28;20041;-72
2024/01/31 11:41:31;;;;;;;102.03;59.20;;;;;;;17.03;nan;98731.06;5046833;28;20059;-73
2024/01/31 11:44:00;;;;;;;93.88;57.70;;;;;;;16.98;nan;98740.81;5029336;28;20517;-73
2024/01/31 11:46:29;;;;;;;99.03;57.75;;;;;;;17.05;nan;98736.16;5054804;28;20060;-73